createdAt,value
2023-03-04T00:00:17.564Z,0.4
2023-03-04T00:01:46.022Z,0.4
2023-03-04T00:02:54.462Z,0.4
2023-03-04T00:04:01.458Z,0.4
2023-03-04T00:05:08.927Z,0.4
2023-03-04T00:06:16.086Z,0.4
2023-03-04T00:07:25.544Z,0.3
2023-03-04T00:08:32.849Z,0.4
2023-03-04T00:10:04.111Z,0.2
2023-03-04T00:11:51.700Z,0.3
2023-03-04T00:13:17.067Z,0.5
2023-03-04T00:14:24.345Z,0.4
2023-03-04T00:15:34.920Z,0.4
2023-03-04T00:16:42.798Z,0.4
2023-03-04T00:18:11.659Z,0.4
2023-03-04T00:19:18.788Z,0.5
2023-03-04T00:20:36.899Z,0.4
2023-03-04T00:21:57.526Z,0.4
2023-03-04T00:23:32.230Z,0.3
2023-03-04T00:24:40.469Z,0.4
2023-03-04T00:25:52.929Z,0.4
2023-03-04T00:27:00.669Z,0.4
2023-03-04T00:28:11.173Z,0.3
2023-03-04T00:29:46.812Z,0.4
2023-03-04T00:31:04.054Z,0.5
2023-03-04T00:32:12.010Z,0.6
2023-03-04T00:33:51.781Z,0.7
2023-03-04T00:35:25.555Z,0.6
2023-03-04T00:36:53.270Z,0.5
2023-03-04T00:38:00.309Z,0.5
2023-03-04T00:39:26.795Z,0.7
2023-03-04T00:41:15.264Z,0.7
2023-03-04T00:43:52.020Z,0.8
2023-03-04T00:45:12.422Z,0.8
2023-03-04T00:47:32.760Z,0.9
2023-03-04T00:48:57.589Z,0.7
2023-03-04T00:50:06.887Z,0.6
2023-03-04T00:51:27.093Z,0.6
2023-03-04T00:53:24.322Z,0.5
2023-03-04T00:54:33.783Z,0.6
2023-03-04T00:55:41.084Z,0.4
2023-03-04T00:57:36.767Z,0.5
2023-03-04T00:58:48.937Z,0.2
2023-03-04T01:00:06.463Z,0.3
2023-03-04T01:01:52.167Z,0.6
2023-03-04T01:03:47.950Z,0.6
2023-03-04T01:05:52.715Z,0.5
2023-03-04T01:07:34.220Z,0.3
2023-03-04T01:08:45.223Z,0.3
2023-03-04T01:09:55.426Z,0.2
2023-03-04T01:11:04.846Z,0.1
2023-03-04T01:13:30.070Z,0.1
2023-03-04T01:14:58.100Z,0.1
2023-03-04T01:16:05.697Z,-0.1
2023-03-04T01:17:12.756Z,0
2023-03-04T01:18:22.472Z,0.1
2023-03-04T01:19:29.386Z,-0.1
2023-03-04T01:21:03.848Z,-0.1
2023-03-04T01:22:18.975Z,0
2023-03-04T01:23:39.004Z,-0.1
2023-03-04T01:24:52.121Z,-0.1
2023-03-04T01:26:30.205Z,0
2023-03-04T01:27:41.376Z,0
2023-03-04T01:28:49.761Z,0.1
2023-03-04T01:30:04.719Z,0
2023-03-04T01:31:28.141Z,0.1
2023-03-04T01:32:49.494Z,0.1
2023-03-04T01:33:58.888Z,0.2
2023-03-04T01:35:05.853Z,0.2
2023-03-04T01:36:31.707Z,0.3
2023-03-04T01:37:46.037Z,0.3
2023-03-04T01:39:59.917Z,0.4
2023-03-04T01:41:15.229Z,0.3
2023-03-04T01:43:34.384Z,0
2023-03-04T01:44:43.184Z,-0.1
2023-03-04T01:46:12.974Z,0
2023-03-04T01:47:39.350Z,0.1
2023-03-04T01:48:49.918Z,0.1
2023-03-04T01:49:57.674Z,0.1
2023-03-04T01:51:07.043Z,0.3
2023-03-04T01:52:21.853Z,0.2
2023-03-04T01:53:34.259Z,0.1
2023-03-04T01:54:41.244Z,0.1
2023-03-04T01:56:09.144Z,-0.2
2023-03-04T01:57:19.067Z,-0.3
2023-03-04T01:58:33.434Z,-0.1
2023-03-04T01:59:40.517Z,-0.3
2023-03-04T02:00:59.550Z,-0.4
2023-03-04T02:02:12.859Z,-0.3
2023-03-04T02:03:29.072Z,-0.3
2023-03-04T02:04:38.869Z,-0.3
2023-03-04T02:05:46.056Z,-0.3
2023-03-04T02:06:56.003Z,-0.2
2023-03-04T02:08:02.980Z,-0.2
2023-03-04T02:09:22.522Z,-0.1
2023-03-04T02:10:42.664Z,-0.1
2023-03-04T02:11:52.512Z,0
2023-03-04T02:13:09.852Z,0
2023-03-04T02:14:16.899Z,0
2023-03-04T02:15:38.460Z,0
2023-03-04T02:16:49.653Z,-0.1
2023-03-04T02:17:56.642Z,0
2023-03-04T02:19:10.542Z,-0.2
2023-03-04T02:20:23.480Z,-0.1
2023-03-04T02:21:59.516Z,-0.2
2023-03-04T02:23:06.497Z,-0.1
2023-03-04T02:24:22.327Z,-0.2
2023-03-04T02:25:54.609Z,-0.2
2023-03-04T02:27:36.140Z,0.1
2023-03-04T02:28:48.696Z,0.2
2023-03-04T02:29:58.594Z,0
2023-03-04T02:31:05.588Z,0
2023-03-04T02:32:15.541Z,-0.1
2023-03-04T02:33:23.622Z,-0.2
2023-03-04T02:34:56.425Z,-0.1
2023-03-04T02:36:30.753Z,-0.2
2023-03-04T02:37:39.482Z,-0.1
2023-03-04T02:38:53.543Z,0
2023-03-04T02:40:01.365Z,0.2
2023-03-04T02:41:08.998Z,0.2
2023-03-04T02:42:22.985Z,0.2
2023-03-04T02:43:35.002Z,0.2
2023-03-04T02:45:15.495Z,0.3
2023-03-04T02:46:30.340Z,0.3
2023-03-04T02:47:40.004Z,0.3
2023-03-04T02:48:47.728Z,0.4
2023-03-04T02:50:01.388Z,0.4
2023-03-04T02:51:11.474Z,0.4
2023-03-04T02:52:18.889Z,0.4
2023-03-04T02:53:26.035Z,0.3
2023-03-04T02:54:33.074Z,0.3
2023-03-04T02:55:49.913Z,0.3
2023-03-04T02:56:56.928Z,0.2
2023-03-04T02:58:06.583Z,0.2
2023-03-04T02:59:15.835Z,0.2
2023-03-04T03:00:24.377Z,0.2
2023-03-04T03:01:42.714Z,0.2
2023-03-04T03:02:50.594Z,0.1
2023-03-04T03:04:01.205Z,0.1
2023-03-04T03:05:20.724Z,0.1
2023-03-04T03:06:28.179Z,0
2023-03-04T03:07:35.793Z,-0.1
2023-03-04T03:08:54.112Z,-0.1
2023-03-04T03:10:01.409Z,-0.1
2023-03-04T03:11:09.880Z,-0.3
2023-03-04T03:12:30.708Z,-0.2
2023-03-04T03:13:38.332Z,-0.2
2023-03-04T03:14:45.442Z,-0.4
2023-03-04T03:15:52.441Z,-0.3
2023-03-04T03:17:00.138Z,-0.4
2023-03-04T03:18:07.624Z,-0.5
2023-03-04T03:19:21.971Z,-0.5
2023-03-04T03:20:31.578Z,-0.4
2023-03-04T03:21:39.504Z,-0.5
2023-03-04T03:22:46.499Z,-0.4
2023-03-04T03:23:58.674Z,-0.4
2023-03-04T03:25:08.617Z,-0.4
2023-03-04T03:26:15.561Z,-0.4
2023-03-04T03:27:25.201Z,-0.4
2023-03-04T03:28:33.977Z,-0.3
2023-03-04T03:29:47.837Z,-0.3
2023-03-04T03:30:58.368Z,-0.3
2023-03-04T03:32:05.324Z,-0.3
2023-03-04T03:33:13.404Z,-0.2
2023-03-04T03:34:24.355Z,-0.2
2023-03-04T03:35:36.985Z,-0.2
2023-03-04T03:36:46.097Z,-0.2
2023-03-04T03:37:53.029Z,-0.2
2023-03-04T03:39:01.027Z,-0.2
2023-03-04T03:40:08.967Z,-0.2
2023-03-04T03:41:17.123Z,-0.1
2023-03-04T03:42:24.750Z,-0.2
2023-03-04T03:43:33.656Z,-0.1
2023-03-04T03:44:40.595Z,-0.1
2023-03-04T03:45:50.270Z,-0.1
2023-03-04T03:46:57.314Z,-0.1
2023-03-04T03:48:04.257Z,-0.1
2023-03-04T03:49:11.255Z,-0.1
2023-03-04T03:50:18.863Z,-0.2
2023-03-04T03:51:28.624Z,-0.2
2023-03-04T03:52:37.817Z,-0.2
2023-03-04T03:53:44.871Z,-0.2
2023-03-04T03:54:52.684Z,-0.2
2023-03-04T03:55:59.656Z,-0.3
2023-03-04T03:57:06.788Z,-0.3
2023-03-04T03:58:18.140Z,-0.3
2023-03-04T03:59:25.288Z,-0.3
2023-03-04T04:00:37.348Z,-0.3
2023-03-04T04:01:47.943Z,-0.3
2023-03-04T04:03:03.737Z,-0.3
2023-03-04T04:04:10.710Z,-0.3
2023-03-04T04:05:18.420Z,-0.3
2023-03-04T04:06:25.370Z,-0.3
2023-03-04T04:07:36.035Z,-0.3
2023-03-04T04:08:43.029Z,-0.3
2023-03-04T04:09:52.866Z,-0.4
2023-03-04T04:11:06.609Z,-0.3
2023-03-04T04:12:16.265Z,-0.3
2023-03-04T04:13:31.322Z,-0.3
2023-03-04T04:14:38.294Z,-0.2
2023-03-04T04:15:46.049Z,-0.2
2023-03-04T04:16:56.221Z,-0.2
2023-03-04T04:18:25.205Z,-0.2
2023-03-04T04:19:36.496Z,-0.2
2023-03-04T04:20:43.439Z,-0.2
2023-03-04T04:21:50.480Z,-0.2
2023-03-04T04:22:57.529Z,-0.2
2023-03-04T04:24:07.461Z,-0.2
2023-03-04T04:25:24.149Z,-0.2
2023-03-04T04:26:35.991Z,-0.3
2023-03-04T04:27:45.795Z,-0.2
2023-03-04T04:29:07.108Z,-0.3
2023-03-04T04:30:15.163Z,-0.3
2023-03-04T04:31:33.551Z,-0.3
2023-03-04T04:32:40.912Z,-0.3
2023-03-04T04:33:54.163Z,-0.3
2023-03-04T04:35:10.691Z,-0.2
2023-03-04T04:36:24.512Z,-0.2
2023-03-04T04:37:31.485Z,-0.1
2023-03-04T04:38:46.582Z,-0.1
2023-03-04T04:39:53.504Z,-0.2
2023-03-04T04:41:00.500Z,-0.2
2023-03-04T04:42:08.598Z,-0.2
2023-03-04T04:43:16.563Z,-0.2
2023-03-04T04:44:35.544Z,-0.2
2023-03-04T04:45:42.526Z,-0.1
2023-03-04T04:46:49.839Z,-0.1
2023-03-04T04:47:58.237Z,-0.1
2023-03-04T04:49:06.268Z,0
2023-03-04T04:50:24.802Z,0
2023-03-04T04:51:35.267Z,-0.1
2023-03-04T04:52:47.412Z,-0.3
2023-03-04T04:53:58.126Z,-0.4
2023-03-04T04:55:05.120Z,-0.5
2023-03-04T04:56:12.683Z,-0.4
2023-03-04T04:57:19.995Z,-0.2
2023-03-04T04:58:27.084Z,-0.2
2023-03-04T04:59:34.510Z,-0.2
2023-03-04T05:00:44.096Z,-0.3
2023-03-04T05:01:52.595Z,-0.4
2023-03-04T05:03:04.602Z,-0.4
2023-03-04T05:04:14.219Z,-0.4
2023-03-04T05:05:22.102Z,-0.3
2023-03-04T05:06:31.738Z,-0.2
2023-03-04T05:07:40.847Z,-0.2
2023-03-04T05:08:47.722Z,-0.5
2023-03-04T05:09:55.372Z,-0.5
2023-03-04T05:11:03.225Z,-0.9
2023-03-04T05:12:14.549Z,-0.8
2023-03-04T05:13:27.145Z,-1
2023-03-04T05:14:34.678Z,-1
2023-03-04T05:16:53.269Z,-0.7
2023-03-04T05:18:00.603Z,-0.7
2023-03-04T05:19:07.633Z,-0.7
2023-03-04T05:20:16.359Z,-0.8
2023-03-04T05:21:24.783Z,-0.8
2023-03-04T05:22:32.611Z,-0.8
2023-03-04T05:23:41.931Z,-0.8
2023-03-04T05:24:50.790Z,-0.8
2023-03-04T05:25:57.809Z,-0.7
2023-03-04T05:27:13.466Z,-0.6
2023-03-04T05:28:21.295Z,-0.8
2023-03-04T05:29:28.336Z,-0.5
2023-03-04T05:30:37.399Z,-0.5
2023-03-04T05:31:47.481Z,-0.4
2023-03-04T05:32:54.560Z,-0.4
2023-03-04T05:34:02.038Z,-0.4
2023-03-04T05:35:09.179Z,-0.4
2023-03-04T05:36:17.220Z,-0.4
2023-03-04T05:37:25.181Z,-0.3
2023-03-04T05:38:46.616Z,-0.3
2023-03-04T05:40:00.739Z,-0.3
2023-03-04T05:41:08.100Z,-0.3
2023-03-04T05:42:15.471Z,-0.3
2023-03-04T05:43:22.556Z,-0.3
2023-03-04T05:44:29.572Z,-0.3
2023-03-04T05:45:46.841Z,-0.2
2023-03-04T05:46:57.004Z,-0.2
2023-03-04T05:48:04.307Z,-0.3
2023-03-04T05:49:19.498Z,-0.3
2023-03-04T05:50:27.002Z,-0.3
2023-03-04T05:51:44.745Z,-0.3
2023-03-04T05:52:53.724Z,-0.2
2023-03-04T05:54:04.362Z,-0.2
2023-03-04T05:55:23.729Z,-0.2
2023-03-04T05:56:31.260Z,-0.2
2023-03-04T05:57:38.340Z,-0.2
2023-03-04T05:58:48.521Z,-0.2
2023-03-04T06:02:16.759Z,-0.2
2023-03-04T06:03:25.796Z,-0.2
2023-03-04T06:04:35.820Z,-0.2
2023-03-04T06:05:42.811Z,-0.2
2023-03-04T06:06:50.709Z,-0.3
2023-03-04T06:07:57.668Z,-0.2
2023-03-04T06:09:09.188Z,-0.1
2023-03-04T06:10:16.346Z,0
2023-03-04T06:11:25.999Z,0
2023-03-04T06:12:39.032Z,-0.1
2023-03-04T06:13:46.006Z,0
2023-03-04T06:14:52.966Z,0
2023-03-04T06:16:21.782Z,-0.1
2023-03-04T06:17:29.350Z,0
2023-03-04T06:18:38.987Z,0
2023-03-04T06:20:09.387Z,-0.3
2023-03-04T06:21:16.424Z,-0.3
2023-03-04T06:22:39.999Z,-0.4
2023-03-04T06:24:10.724Z,-0.4
2023-03-04T06:25:17.785Z,-0.5
2023-03-04T06:26:34.961Z,-0.5
2023-03-04T06:27:50.785Z,-0.6
2023-03-04T06:28:57.455Z,-0.5
2023-03-04T06:30:10.707Z,-0.6
2023-03-04T06:31:17.794Z,-0.6
2023-03-04T06:32:28.876Z,-0.5
2023-03-04T06:33:49.528Z,-0.4
2023-03-04T06:35:08.110Z,-0.3
2023-03-04T06:36:19.322Z,-0.3
2023-03-04T06:39:02.341Z,-0.2
2023-03-04T06:40:09.720Z,-0.4
2023-03-04T06:41:16.738Z,-0.5
2023-03-04T06:42:44.075Z,-0.4
2023-03-04T06:43:51.074Z,-0.5
2023-03-04T06:44:59.304Z,-0.4
2023-03-04T06:46:06.416Z,-0.4
2023-03-04T06:47:28.752Z,-0.4
2023-03-04T06:48:36.294Z,-0.4
2023-03-04T06:49:46.385Z,-0.2
2023-03-04T06:50:53.521Z,-0.2
2023-03-04T06:52:00.399Z,-0.1
2023-03-04T06:53:31.899Z,-0.1
2023-03-04T06:54:42.006Z,-0.3
2023-03-04T06:55:49.713Z,-0.2
2023-03-04T06:57:25.916Z,-0.1
2023-03-04T06:58:32.860Z,0
2023-03-04T06:59:54.905Z,-0.1
2023-03-04T07:01:05.459Z,0
2023-03-04T07:02:58.514Z,0.2
2023-03-04T07:04:08.526Z,0.1
2023-03-04T07:05:29.246Z,0
2023-03-04T07:06:40.066Z,0
2023-03-04T07:07:47.082Z,-0.3
2023-03-04T07:08:57.565Z,-0.3
2023-03-04T07:10:16.850Z,-0.4
2023-03-04T07:11:30.331Z,-0.3
2023-03-04T07:12:47.963Z,-0.1
2023-03-04T07:13:55.231Z,-0.1
2023-03-04T07:15:03.998Z,0
2023-03-04T07:16:17.967Z,0.1
2023-03-04T07:17:26.417Z,0.1
2023-03-04T07:18:33.794Z,0.1
2023-03-04T07:19:43.265Z,0.2
2023-03-04T07:20:50.585Z,0.1
2023-03-04T07:21:58.545Z,0
2023-03-04T07:23:10.402Z,0
2023-03-04T07:24:17.494Z,0
2023-03-04T07:25:37.325Z,-0.1
2023-03-04T07:26:59.629Z,-0.1
2023-03-04T07:28:06.673Z,-0.1
2023-03-04T07:29:14.738Z,-0.3
2023-03-04T07:30:24.540Z,-0.3
2023-03-04T07:31:37.267Z,-0.2
2023-03-04T07:32:45.116Z,0
2023-03-04T07:34:31.181Z,-0.2
2023-03-04T07:35:45.538Z,-0.2
2023-03-04T07:36:52.482Z,-0.1
2023-03-04T07:38:00.306Z,0.1
2023-03-04T07:39:07.268Z,0.1
2023-03-04T07:40:15.581Z,0
2023-03-04T07:41:27.316Z,0.1
2023-03-04T07:42:35.071Z,0.1
2023-03-04T07:43:42.146Z,-0.1
2023-03-04T07:44:49.245Z,-0.2
2023-03-04T07:45:56.263Z,-0.1
2023-03-04T07:47:05.991Z,0.1
2023-03-04T07:48:13.232Z,0.1
2023-03-04T07:49:21.678Z,0.2
2023-03-04T07:50:31.571Z,0
2023-03-04T07:51:38.637Z,0
2023-03-04T07:52:45.954Z,-0.1
2023-03-04T07:53:52.955Z,0.1
2023-03-04T07:55:04.006Z,0.1
2023-03-04T07:56:12.540Z,0.1
2023-03-04T07:57:19.614Z,0.1
2023-03-04T07:58:30.119Z,0
2023-03-04T07:59:37.126Z,0.1
2023-03-04T08:00:44.302Z,0
2023-03-04T08:01:52.824Z,0.1
2023-03-04T08:03:00.459Z,0.1
2023-03-04T08:04:10.183Z,0.1
2023-03-04T08:05:17.383Z,0
2023-03-04T08:06:24.716Z,0.1
2023-03-04T08:07:31.956Z,0.2
2023-03-04T08:08:38.993Z,0.3
2023-03-04T08:09:45.997Z,0.1
2023-03-04T08:10:53.823Z,0.3
2023-03-04T08:12:01.083Z,0.4
2023-03-04T08:13:08.070Z,0.3
2023-03-04T08:14:15.284Z,0.2
2023-03-04T08:15:22.946Z,0.2
2023-03-04T08:16:32.784Z,0.3
2023-03-04T08:17:40.285Z,0.3
2023-03-04T08:18:49.932Z,0.5
2023-03-04T08:19:57.015Z,0.5
2023-03-04T08:21:07.063Z,0.4
2023-03-04T08:22:14.100Z,0.4
2023-03-04T08:23:24.084Z,0.5
2023-03-04T08:24:31.526Z,0.5
2023-03-04T08:25:42.933Z,0.3
2023-03-04T08:26:50.977Z,0.5
2023-03-04T08:27:58.290Z,0.6
2023-03-04T08:29:05.904Z,0.5
2023-03-04T08:30:15.974Z,0.4
2023-03-04T08:31:26.936Z,0.6
2023-03-04T08:32:38.624Z,0.6
2023-03-04T08:33:45.516Z,0.6
2023-03-04T08:34:55.149Z,0.8
2023-03-04T08:36:03.539Z,0.7
2023-03-04T08:37:12.006Z,0.7
2023-03-04T08:38:20.120Z,0.7
2023-03-04T08:39:30.945Z,0.7
2023-03-04T08:40:40.313Z,0.5
2023-03-04T08:41:47.442Z,0.8
2023-03-04T08:42:54.758Z,0.7
2023-03-04T08:44:01.755Z,0.6
2023-03-04T08:45:09.362Z,0.6
2023-03-04T08:46:16.438Z,0.5
2023-03-04T08:47:24.504Z,0.7
2023-03-04T08:48:32.118Z,0.6
2023-03-04T08:49:41.113Z,0.6
2023-03-04T08:50:49.135Z,0.8
2023-03-04T08:51:56.168Z,0.7
2023-03-04T08:53:03.150Z,0.6
2023-03-04T08:54:10.413Z,0.8
2023-03-04T08:55:17.495Z,0.7
2023-03-04T08:56:27.350Z,0.8
2023-03-04T08:57:34.845Z,0.7
2023-03-04T08:58:42.503Z,0.8
2023-03-04T08:59:49.675Z,0.7
2023-03-04T09:01:00.526Z,0.8
2023-03-04T09:02:07.602Z,0.6
2023-03-04T09:03:17.245Z,0.7
2023-03-04T09:04:24.170Z,0.8
2023-03-04T09:05:34.093Z,0.8
2023-03-04T09:06:44.018Z,0.8
2023-03-04T09:07:51.988Z,0.7
2023-03-04T09:09:02.394Z,0.8
2023-03-04T09:10:10.521Z,0.8
2023-03-04T09:11:17.547Z,0.7
2023-03-04T09:12:24.560Z,0.7
2023-03-04T09:13:32.282Z,0.6
2023-03-04T09:14:43.008Z,0.8
2023-03-04T09:15:51.254Z,0.8
2023-03-04T09:16:59.353Z,0.7
2023-03-04T09:18:06.329Z,0.6
2023-03-04T09:19:13.385Z,0.5
2023-03-04T09:20:23.125Z,0.4
2023-03-04T09:21:30.084Z,0.4
2023-03-04T09:22:37.438Z,0.4
2023-03-04T09:23:44.815Z,0.5
2023-03-04T09:24:52.023Z,0.5
2023-03-04T09:25:59.200Z,0.5
2023-03-04T09:27:09.159Z,0.6
2023-03-04T09:28:16.239Z,0.6
2023-03-04T09:29:23.369Z,0.6
2023-03-04T09:30:33.230Z,0.6
2023-03-04T09:31:41.828Z,0.5
2023-03-04T09:32:50.169Z,0.5
2023-03-04T09:33:58.048Z,0.4
2023-03-04T09:35:05.891Z,0.4
2023-03-04T09:36:12.948Z,0.4
2023-03-04T09:37:20.674Z,0.5
2023-03-04T09:38:30.202Z,0.5
2023-03-04T09:39:37.831Z,0.6
2023-03-04T09:40:47.941Z,0.5
2023-03-04T09:41:57.504Z,0.4
2023-03-04T09:43:07.185Z,0.5
2023-03-04T09:44:25.333Z,0.2
2023-03-04T09:45:40.656Z,0.3
2023-03-04T09:46:47.889Z,0.4
2023-03-04T09:47:54.866Z,0.2
2023-03-04T09:49:01.977Z,0.2
2023-03-04T09:50:09.786Z,0.1
2023-03-04T09:51:19.401Z,0.3
2023-03-04T09:52:32.916Z,0.3
2023-03-04T09:53:48.980Z,0.4
2023-03-04T09:55:06.316Z,0.2
2023-03-04T09:56:16.141Z,0.3
2023-03-04T09:57:26.017Z,0.2
2023-03-04T09:58:33.704Z,0.4
2023-03-04T09:59:51.725Z,0.4
2023-03-04T10:01:05.279Z,0.4
2023-03-04T10:02:18.755Z,0.3
2023-03-04T10:03:30.866Z,0.2
2023-03-04T10:04:48.063Z,0.4
2023-03-04T10:05:57.232Z,0.3
2023-03-04T10:07:06.157Z,0.4
2023-03-04T10:08:16.515Z,0.4
2023-03-04T10:09:33.811Z,0.4
2023-03-04T10:10:46.088Z,0.5
2023-03-04T10:11:53.059Z,0.5
2023-03-04T10:13:09.529Z,0.4
2023-03-04T10:14:15.537Z,0.4
2023-03-04T10:15:26.339Z,0.4
2023-03-04T10:16:41.260Z,0.6
2023-03-04T10:17:56.015Z,0.7
2023-03-04T10:19:13.963Z,0.7
2023-03-04T10:20:29.856Z,0.9
2023-03-04T10:21:47.390Z,0.8
2023-03-04T10:22:58.147Z,0.7
2023-03-04T10:24:14.050Z,0.6
2023-03-04T10:25:27.367Z,0.7
2023-03-04T10:26:35.049Z,0.8
2023-03-04T10:27:42.358Z,0.7
2023-03-04T10:28:54.805Z,0.7
2023-03-04T10:30:06.485Z,0.6
2023-03-04T10:31:16.696Z,0.8
2023-03-04T10:32:26.708Z,0.8
2023-03-04T10:33:34.022Z,0.8
2023-03-04T10:34:41.084Z,0.9
2023-03-04T10:35:52.762Z,0.9
2023-03-04T10:37:05.898Z,1
2023-03-04T10:38:14.539Z,0.9
2023-03-04T10:39:23.130Z,1
2023-03-04T10:40:36.220Z,1
2023-03-04T10:41:45.624Z,1.1
2023-03-04T10:43:04.287Z,1
2023-03-04T10:44:16.417Z,1.1
2023-03-04T10:45:23.714Z,0.9
2023-03-04T10:46:30.813Z,0.9
2023-03-04T10:47:37.822Z,1
2023-03-04T10:48:47.871Z,1.2
2023-03-04T10:49:54.898Z,1.2
2023-03-04T10:51:02.159Z,1.3
2023-03-04T10:52:15.155Z,1.2
2023-03-04T10:53:32.602Z,1.3
2023-03-04T10:54:46.159Z,1.3
2023-03-04T10:55:54.204Z,1.3
2023-03-04T10:57:04.801Z,1.1
2023-03-04T10:58:19.800Z,1.3
2023-03-04T10:59:30.032Z,1.1
2023-03-04T11:00:37.736Z,1.2
2023-03-04T11:01:45.023Z,1.1
2023-03-04T11:02:52.136Z,1.2
2023-03-04T11:04:02.815Z,1.1
2023-03-04T11:05:10.948Z,1.1
2023-03-04T11:06:17.935Z,1.1
2023-03-04T11:07:26.329Z,1.2
2023-03-04T11:08:33.677Z,1.2
2023-03-04T11:09:42.802Z,1.1
2023-03-04T11:10:52.250Z,1.1
2023-03-04T11:12:00.154Z,1.1
2023-03-04T11:13:08.121Z,1
2023-03-04T11:14:15.626Z,1.3
2023-03-04T11:15:22.777Z,1.2
2023-03-04T11:16:30.729Z,1.3
2023-03-04T11:17:37.947Z,1.3
2023-03-04T11:18:47.814Z,1.3
2023-03-04T11:19:55.986Z,1.3
2023-03-04T11:21:08.260Z,1.3
2023-03-04T11:22:20.431Z,1.3
2023-03-04T11:23:27.552Z,1.4
2023-03-04T11:24:44.644Z,1.3
2023-03-04T11:25:59.590Z,1.3
2023-03-04T11:27:06.977Z,1.5
2023-03-04T11:28:19.359Z,1.4
2023-03-04T11:29:27.216Z,1.3
2023-03-04T11:30:45.194Z,1.4
2023-03-04T11:32:00.359Z,1.4
2023-03-04T11:33:12.448Z,1.5
2023-03-04T11:34:27.388Z,1.7
2023-03-04T11:35:43.031Z,1.7
2023-03-04T11:37:00.912Z,1.6
2023-03-04T11:38:10.850Z,1.4
2023-03-04T11:39:28.023Z,1.5
2023-03-04T11:40:41.101Z,1.4
2023-03-04T11:41:54.436Z,1.6
2023-03-04T11:43:10.400Z,1.6
2023-03-04T11:44:21.639Z,1.6
2023-03-04T11:45:33.808Z,1.6
2023-03-04T11:47:00.830Z,1.7
2023-03-04T11:48:37.031Z,1.6
2023-03-04T11:49:55.490Z,1.7
2023-03-04T11:51:12.987Z,1.7
2023-03-04T11:52:35.827Z,1.6
2023-03-04T11:53:54.134Z,1.6
2023-03-04T11:55:09.413Z,1.7
2023-03-04T11:56:22.523Z,1.8
2023-03-04T11:57:38.462Z,1.9
2023-03-04T11:58:48.351Z,1.9
2023-03-04T12:00:05.800Z,2.1
2023-03-04T12:01:24.445Z,2
2023-03-04T12:02:35.423Z,2
2023-03-04T12:03:47.894Z,2
2023-03-04T12:05:04.975Z,2
2023-03-04T12:06:21.791Z,1.9
2023-03-04T12:07:36.820Z,2.1
2023-03-04T12:08:52.449Z,2.2
2023-03-04T12:10:06.017Z,2.1
2023-03-04T12:11:20.779Z,2.2
2023-03-04T12:12:35.446Z,2.3
2023-03-04T12:13:48.054Z,2.3
2023-03-04T12:15:14.420Z,2.4
2023-03-04T12:16:41.484Z,2.2
2023-03-04T12:17:54.480Z,2.2
2023-03-04T12:19:17.264Z,2.5
2023-03-04T12:20:37.402Z,2.5
2023-03-04T12:21:46.391Z,2.4
2023-03-04T12:23:03.732Z,2.4
2023-03-04T12:24:15.915Z,2.4
2023-03-04T12:25:29.621Z,2.5
2023-03-04T12:26:46.974Z,2.5
2023-03-04T12:28:05.774Z,2.4
2023-03-04T12:29:21.704Z,2.4
2023-03-04T12:30:42.387Z,2.5
2023-03-04T12:32:03.419Z,2.7
2023-03-04T12:33:16.240Z,2.8
2023-03-04T12:34:23.237Z,2.7
2023-03-04T12:35:37.390Z,2.8
2023-03-04T12:36:49.653Z,2.7
2023-03-04T12:38:06.887Z,2.7
2023-03-04T12:39:19.521Z,2.7
2023-03-04T12:40:36.202Z,2.8
2023-03-04T12:41:53.644Z,2.9
2023-03-04T12:43:10.936Z,2.9
2023-03-04T12:44:26.004Z,2.8
2023-03-04T12:45:33.898Z,2.8
2023-03-04T12:46:49.712Z,2.8
2023-03-04T12:48:02.073Z,2.9
2023-03-04T12:49:22.551Z,2.9
2023-03-04T12:50:34.783Z,2.8
2023-03-04T12:51:48.233Z,2.8
2023-03-04T12:53:06.279Z,2.7
2023-03-04T12:54:21.509Z,2.7
2023-03-04T12:55:28.914Z,2.8
2023-03-04T12:56:41.084Z,2.9
2023-03-04T12:57:52.208Z,3.1
2023-03-04T12:58:59.493Z,3.1
2023-03-04T13:00:07.080Z,3.1
2023-03-04T13:01:24.228Z,3.1
2023-03-04T13:02:40.126Z,3
2023-03-04T13:03:56.196Z,2.7
2023-03-04T13:05:13.465Z,2.8
2023-03-04T13:06:30.202Z,2.7
2023-03-04T13:07:47.523Z,2.6
2023-03-04T13:09:07.519Z,2.6
2023-03-04T13:10:26.566Z,2.5
2023-03-04T13:11:33.557Z,2.6
2023-03-04T13:12:43.754Z,2.7
2023-03-04T13:13:52.553Z,2.7
2023-03-04T13:15:04.297Z,2.6
2023-03-04T13:16:12.016Z,2.6
2023-03-04T13:17:25.549Z,2.5
2023-03-04T13:18:41.105Z,2.5
2023-03-04T13:19:52.955Z,2.4
2023-03-04T13:21:00.494Z,2.4
2023-03-04T13:22:10.586Z,2.5
2023-03-04T13:23:28.622Z,2.4
2023-03-04T13:24:36.015Z,2.5
2023-03-04T13:25:50.359Z,2.6
2023-03-04T13:27:01.102Z,2.6
2023-03-04T13:28:19.580Z,2.8
2023-03-04T13:29:31.993Z,2.7
2023-03-04T13:30:39.142Z,2.8
2023-03-04T13:31:46.158Z,2.8
2023-03-04T13:33:04.318Z,2.7
2023-03-04T13:34:17.414Z,2.8
2023-03-04T13:35:37.756Z,2.9
2023-03-04T13:36:50.486Z,2.8
2023-03-04T13:37:58.225Z,2.7
2023-03-04T13:39:05.933Z,2.7
2023-03-04T13:40:21.448Z,2.7
2023-03-04T13:41:39.274Z,2.8
2023-03-04T13:42:51.524Z,2.9
2023-03-04T13:44:00.415Z,2.9
2023-03-04T13:45:07.556Z,2.8
2023-03-04T13:46:24.690Z,2.8
2023-03-04T13:47:34.489Z,2.9
2023-03-04T13:48:47.487Z,2.8
2023-03-04T13:49:54.897Z,3
2023-03-04T13:51:23.728Z,2.9
2023-03-04T13:52:26.897Z,2.8
2023-03-04T13:53:48.917Z,2.8
2023-03-04T13:55:01.805Z,2.8
2023-03-04T13:56:19.038Z,2.9
2023-03-04T13:57:31.926Z,2.8
2023-03-04T13:58:38.902Z,2.8
2023-03-04T13:59:45.933Z,2.8
2023-03-04T14:00:53.249Z,2.8
2023-03-04T14:02:01.734Z,2.7
2023-03-04T14:03:16.617Z,2.7
2023-03-04T14:04:24.336Z,2.7
2023-03-04T14:05:39.987Z,2.6
2023-03-04T14:06:50.088Z,2.6
2023-03-04T14:07:57.615Z,2.6
2023-03-04T14:09:22.008Z,2.6
2023-03-04T14:10:34.562Z,2.4
2023-03-04T14:12:01.674Z,2.4
2023-03-04T14:13:09.366Z,2.5
2023-03-04T14:14:16.405Z,2.5
2023-03-04T14:15:25.954Z,2.6
2023-03-04T14:16:33.355Z,2.6
2023-03-04T14:17:47.208Z,2.4
2023-03-04T14:19:08.815Z,2.6
2023-03-04T14:20:24.394Z,2.7
2023-03-04T14:21:39.223Z,2.7
2023-03-04T14:22:49.419Z,2.7
2023-03-04T14:23:56.690Z,2.6
2023-03-04T14:25:03.691Z,2.6
2023-03-04T14:26:10.833Z,2.6
2023-03-04T14:27:18.069Z,2.5
2023-03-04T14:28:25.095Z,2.5
2023-03-04T14:29:32.636Z,2.6
2023-03-04T14:30:43.069Z,2.6
2023-03-04T14:31:46.771Z,2.7
2023-03-04T14:32:53.914Z,2.7
2023-03-04T14:34:02.814Z,2.5
2023-03-04T14:35:11.359Z,2.6
2023-03-04T14:36:23.116Z,2.7
2023-03-04T14:37:30.151Z,2.8
2023-03-04T14:38:37.186Z,2.8
2023-03-04T14:39:44.155Z,2.8
2023-03-04T14:40:52.988Z,2.9
2023-03-04T14:42:00.192Z,2.8
2023-03-04T14:43:07.839Z,2.7
2023-03-04T14:44:14.811Z,2.6
2023-03-04T14:45:31.841Z,2.6
2023-03-04T14:46:39.794Z,2.6
2023-03-04T14:47:46.842Z,2.7
2023-03-04T14:48:53.708Z,2.7
2023-03-04T14:50:00.697Z,2.7
2023-03-04T14:51:10.515Z,2.5
2023-03-04T14:52:27.491Z,2.6
2023-03-04T14:53:39.938Z,2.5
2023-03-04T14:54:47.443Z,2.4
2023-03-04T14:55:57.910Z,2.3
2023-03-04T14:57:05.143Z,2.3
2023-03-04T14:58:17.951Z,2.3
2023-03-04T14:59:24.955Z,2.3
2023-03-04T15:00:32.801Z,2.2
2023-03-04T15:01:39.904Z,2.4
2023-03-04T15:02:47.824Z,2.4
2023-03-04T15:03:55.713Z,2.5
2023-03-04T15:05:14.336Z,2.4
2023-03-04T15:06:22.683Z,2.4
2023-03-04T15:07:31.388Z,2.4
2023-03-04T15:08:42.728Z,2.5
2023-03-04T15:09:52.872Z,2.5
2023-03-04T15:11:00.428Z,2.5
2023-03-04T15:12:07.884Z,2.4
2023-03-04T15:13:15.100Z,2.6
2023-03-04T15:14:25.394Z,2.6
2023-03-04T15:15:43.679Z,2.7
2023-03-04T15:16:50.988Z,2.5
2023-03-04T15:17:57.928Z,2.3
2023-03-04T15:19:10.586Z,2.3
2023-03-04T15:20:27.719Z,2.5
2023-03-04T15:21:34.832Z,2.5
2023-03-04T15:22:41.754Z,2.6
2023-03-04T15:23:52.088Z,2.5
2023-03-04T15:24:59.922Z,2.5
2023-03-04T15:26:07.956Z,2.4
2023-03-04T15:27:15.875Z,2.4
2023-03-04T15:28:23.243Z,2.3
2023-03-04T15:29:30.423Z,2.5
2023-03-04T15:30:37.537Z,2.5
2023-03-04T15:31:44.569Z,2.4
2023-03-04T15:32:52.414Z,2.5
2023-03-04T15:33:59.500Z,2.5
2023-03-04T15:35:06.534Z,2.6
2023-03-04T15:36:19.327Z,2.6
2023-03-04T15:37:30.210Z,2.5
2023-03-04T15:38:38.762Z,2.7
2023-03-04T15:39:48.436Z,2.5
2023-03-04T15:40:55.634Z,2.4
2023-03-04T15:42:02.878Z,2.3
2023-03-04T15:43:10.132Z,2.5
2023-03-04T15:44:17.155Z,2.5
2023-03-04T15:45:27.112Z,2.5
2023-03-04T15:46:34.969Z,2.5
2023-03-04T15:47:42.047Z,2.5
2023-03-04T15:48:49.950Z,2.4
2023-03-04T15:49:57.845Z,2.4
2023-03-04T15:51:06.615Z,2.4
2023-03-04T15:52:19.505Z,2.4
2023-03-04T15:53:28.191Z,2.5
2023-03-04T15:54:35.296Z,2.4
2023-03-04T15:55:42.286Z,2.5
2023-03-04T15:56:47.223Z,2.5
2023-03-04T15:58:02.028Z,2.4
2023-03-04T15:59:09.222Z,2.5
2023-03-04T16:00:16.453Z,2.5
2023-03-04T16:01:26.617Z,2.4
2023-03-04T16:02:33.899Z,2.4
2023-03-04T16:03:42.417Z,2.4
2023-03-04T16:04:49.986Z,2.4
2023-03-04T16:05:57.248Z,2.5
2023-03-04T16:07:04.454Z,2.4
2023-03-04T16:08:12.339Z,2.5
2023-03-04T16:09:20.397Z,2.4
2023-03-04T16:10:27.647Z,2.4
2023-03-04T16:11:34.910Z,2.3
2023-03-04T16:12:42.768Z,2.3
2023-03-04T16:13:53.046Z,2.4
2023-03-04T16:15:00.060Z,2.4
2023-03-04T16:16:08.572Z,2.5
2023-03-04T16:17:15.746Z,2.4
2023-03-04T16:18:23.314Z,2.5
2023-03-04T16:19:30.693Z,2.5
2023-03-04T16:20:38.894Z,2.3
2023-03-04T16:21:45.998Z,2.5
2023-03-04T16:22:53.211Z,2.3
2023-03-04T16:24:00.232Z,2.3
2023-03-04T16:25:07.632Z,2.4
2023-03-04T16:26:16.260Z,2.3
2023-03-04T16:27:30.325Z,2.5
2023-03-04T16:28:38.983Z,2.4
2023-03-04T16:29:46.231Z,2.4
2023-03-04T16:30:53.423Z,2.5
2023-03-04T16:32:01.472Z,2.5
2023-03-04T16:33:09.623Z,2.4
2023-03-04T16:34:16.698Z,2.5
2023-03-04T16:35:24.764Z,2.5